sensor_id;sensor_type;location;lat;lon;timestamp;pressure;altitude;pressure_sealevel;temperature;humidity
9717;BME280;4897;43.570;27.832;2022-11-24T00:02:17;98053.31;;;9.05;100.00
9717;BME280;4897;43.570;27.832;2022-11-24T00:04:45;98074.06;;;9.11;100.00
9717;BME280;4897;43.570;27.832;2022-11-24T00:07:13;98069.00;;;9.08;100.00
9717;BME280;4897;43.570;27.832;2022-11-24T00:09:40;98039.66;;;8.80;100.00
9717;BME280;4897;43.570;27.832;2022-11-24T00:12:07;98083.94;;;9.01;100.00
9717;BME280;4897;43.570;27.832;2022-11-24T00:14:34;98100.84;;;9.19;100.00
9717;BME280;4897;43.570;27.832;2022-11-24T00:17:01;98092.56;;;9.12;100.00
9717;BME280;4897;43.570;27.832;2022-11-24T00:19:28;98094.88;;;9.07;100.00
9717;BME280;4897;43.570;27.832;2022-11-24T00:21:56;98099.41;;;8.88;100.00
9717;BME280;4897;43.570;27.832;2022-11-24T00:24:23;98069.19;;;8.69;100.00
9717;BME280;4897;43.570;27.832;2022-11-24T00:26:50;98090.41;;;8.98;100.00
9717;BME280;4897;43.570;27.832;2022-11-24T00:29:17;98097.66;;;9.06;100.00
9717;BME280;4897;43.570;27.832;2022-11-24T00:31:44;98049.19;;;8.83;100.00
9717;BME280;4897;43.570;27.832;2022-11-24T00:34:13;98074.75;;;9.13;100.00
9717;BME280;4897;43.570;27.832;2022-11-24T00:36:43;98096.16;;;9.30;100.00
9717;BME280;4897;43.570;27.832;2022-11-24T00:39:13;98096.00;;;9.32;100.00
9717;BME280;4897;43.570;27.832;2022-11-24T00:41:41;98095.94;;;9.41;100.00
9717;BME280;4897;43.570;27.832;2022-11-24T00:44:08;97974.81;;;8.62;100.00
9717;BME280;4897;43.570;27.832;2022-11-24T00:46:35;98102.53;;;9.47;100.00
9717;BME280;4897;43.570;27.832;2022-11-24T00:49:02;98101.94;;;9.53;100.00
9717;BME280;4897;43.570;27.832;2022-11-24T00:51:29;98085.53;;;9.48;100.00
9717;BME280;4897;43.570;27.832;2022-11-24T00:53:57;98083.97;;;9.45;100.00
9717;BME280;4897;43.570;27.832;2022-11-24T00:56:27;98093.16;;;9.60;100.00
9717;BME280;4897;43.570;27.832;2022-11-24T00:58:54;98095.84;;;9.60;100.00
9717;BME280;4897;43.570;27.832;2022-11-24T01:01:23;98073.56;;;9.52;100.00
9717;BME280;4897;43.570;27.832;2022-11-24T01:03:51;98085.25;;;9.68;100.00
9717;BME280;4897;43.570;27.832;2022-11-24T01:06:21;98103.88;;;9.78;100.00
9717;BME280;4897;43.570;27.832;2022-11-24T01:08:48;98110.59;;;9.82;100.00
9717;BME280;4897;43.570;27.832;2022-11-24T01:11:17;98041.38;;;9.36;100.00
9717;BME280;4897;43.570;27.832;2022-11-24T01:13:47;98111.91;;;9.78;100.00
9717;BME280;4897;43.570;27.832;2022-11-24T01:16:17;98109.06;;;9.80;100.00
9717;BME280;4897;43.570;27.832;2022-11-24T01:18:44;98112.78;;;9.87;100.00
9717;BME280;4897;43.570;27.832;2022-11-24T01:21:11;98090.94;;;9.56;100.00
9717;BME280;4897;43.570;27.832;2022-11-24T01:23:38;98111.09;;;9.68;100.00
9717;BME280;4897;43.570;27.832;2022-11-24T01:26:06;98085.00;;;9.62;100.00
9717;BME280;4897;43.570;27.832;2022-11-24T01:28:33;98103.41;;;9.83;100.00
9717;BME280;4897;43.570;27.832;2022-11-24T01:31:03;98082.22;;;9.63;100.00
9717;BME280;4897;43.570;27.832;2022-11-24T01:33:31;98094.69;;;9.63;100.00
9717;BME280;4897;43.570;27.832;2022-11-24T01:35:59;98095.69;;;9.62;100.00
9717;BME280;4897;43.570;27.832;2022-11-24T01:38:26;98107.72;;;9.66;100.00
9717;BME280;4897;43.570;27.832;2022-11-24T01:40:59;98121.72;;;9.78;100.00
9717;BME280;4897;43.570;27.832;2022-11-24T01:43:27;98101.78;;;9.72;100.00
9717;BME280;4897;43.570;27.832;2022-11-24T01:45:54;98114.31;;;9.89;100.00
9717;BME280;4897;43.570;27.832;2022-11-24T01:48:27;98109.91;;;9.80;100.00
9717;BME280;4897;43.570;27.832;2022-11-24T01:51:02;98102.88;;;9.79;100.00
9717;BME280;4897;43.570;27.832;2022-11-24T01:53:32;98110.28;;;9.68;100.00
9717;BME280;4897;43.570;27.832;2022-11-24T01:56:00;98113.81;;;9.86;100.00
9717;BME280;4897;43.570;27.832;2022-11-24T01:58:30;98091.91;;;9.82;100.00
9717;BME280;4897;43.570;27.832;2022-11-24T02:00:58;98108.78;;;10.00;100.00
9717;BME280;4897;43.570;27.832;2022-11-24T02:03:29;98095.72;;;9.97;100.00
9717;BME280;4897;43.570;27.832;2022-11-24T02:06:00;98083.81;;;9.92;100.00
9717;BME280;4897;43.570;27.832;2022-11-24T02:08:32;98108.59;;;10.11;100.00
9717;BME280;4897;43.570;27.832;2022-11-24T02:11:03;98047.50;;;9.81;100.00
9717;BME280;4897;43.570;27.832;2022-11-24T02:13:32;98090.16;;;10.08;100.00
9717;BME280;4897;43.570;27.832;2022-11-24T02:16:00;98084.91;;;10.16;100.00
9717;BME280;4897;43.570;27.832;2022-11-24T02:18:29;98079.31;;;10.10;100.00
9717;BME280;4897;43.570;27.832;2022-11-24T02:20:57;98008.16;;;9.48;100.00
9717;BME280;4897;43.570;27.832;2022-11-24T02:23:32;98086.28;;;10.20;100.00
9717;BME280;4897;43.570;27.832;2022-11-24T02:26:10;98057.03;;;10.01;100.00
9717;BME280;4897;43.570;27.832;2022-11-24T02:28:42;98084.84;;;10.26;100.00
9717;BME280;4897;43.570;27.832;2022-11-24T02:31:09;98085.94;;;10.15;100.00
9717;BME280;4897;43.570;27.832;2022-11-24T02:33:36;97899.72;;;9.12;100.00
9717;BME280;4897;43.570;27.832;2022-11-24T02:36:04;98078.88;;;10.14;100.00
9717;BME280;4897;43.570;27.832;2022-11-24T02:38:32;98088.13;;;10.20;100.00
9717;BME280;4897;43.570;27.832;2022-11-24T02:41:02;98091.56;;;10.30;100.00
9717;BME280;4897;43.570;27.832;2022-11-24T02:43:33;98097.44;;;10.33;100.00
9717;BME280;4897;43.570;27.832;2022-11-24T02:46:04;98087.59;;;10.34;100.00
9717;BME280;4897;43.570;27.832;2022-11-24T02:48:31;98084.91;;;10.34;100.00
9717;BME280;4897;43.570;27.832;2022-11-24T02:50:58;98021.34;;;10.02;100.00
9717;BME280;4897;43.570;27.832;2022-11-24T02:53:25;98058.94;;;10.26;100.00
9717;BME280;4897;43.570;27.832;2022-11-24T02:55:52;98085.34;;;10.47;100.00
9717;BME280;4897;43.570;27.832;2022-11-24T02:58:19;98097.31;;;10.43;100.00
9717;BME280;4897;43.570;27.832;2022-11-24T03:00:46;97990.06;;;9.95;100.00
9717;BME280;4897;43.570;27.832;2022-11-24T03:03:14;98077.41;;;10.55;100.00
9717;BME280;4897;43.570;27.832;2022-11-24T03:05:41;98083.94;;;10.61;100.00
9717;BME280;4897;43.570;27.832;2022-11-24T03:08:08;98072.19;;;10.54;100.00
9717;BME280;4897;43.570;27.832;2022-11-24T03:10:35;98071.72;;;10.58;100.00
9717;BME280;4897;43.570;27.832;2022-11-24T03:13:02;98076.22;;;10.58;100.00
9717;BME280;4897;43.570;27.832;2022-11-24T03:15:29;98096.31;;;10.62;100.00
9717;BME280;4897;43.570;27.832;2022-11-24T03:17:57;98081.94;;;10.63;100.00
9717;BME280;4897;43.570;27.832;2022-11-24T03:20:25;98078.38;;;10.54;100.00
9717;BME280;4897;43.570;27.832;2022-11-24T03:22:52;98094.00;;;10.67;100.00
9717;BME280;4897;43.570;27.832;2022-11-24T03:25:19;98089.50;;;10.67;100.00
9717;BME280;4897;43.570;27.832;2022-11-24T03:27:46;98085.97;;;10.67;100.00
9717;BME280;4897;43.570;27.832;2022-11-24T03:30:14;98082.78;;;10.63;100.00
9717;BME280;4897;43.570;27.832;2022-11-24T03:32:41;98080.59;;;10.59;100.00
9717;BME280;4897;43.570;27.832;2022-11-24T03:35:08;98078.91;;;10.58;100.00
9717;BME280;4897;43.570;27.832;2022-11-24T03:37:37;98082.56;;;10.57;100.00
9717;BME280;4897;43.570;27.832;2022-11-24T03:40:05;98086.78;;;10.59;100.00
9717;BME280;4897;43.570;27.832;2022-11-24T03:42:32;98096.91;;;10.56;100.00
9717;BME280;4897;43.570;27.832;2022-11-24T03:44:59;98035.75;;;10.27;100.00
9717;BME280;4897;43.570;27.832;2022-11-24T03:47:26;98078.03;;;10.49;100.00
9717;BME280;4897;43.570;27.832;2022-11-24T03:49:53;98078.31;;;10.46;100.00
9717;BME280;4897;43.570;27.832;2022-11-24T03:52:20;98105.53;;;10.67;100.00
9717;BME280;4897;43.570;27.832;2022-11-24T03:54:48;98095.94;;;10.57;100.00
9717;BME280;4897;43.570;27.832;2022-11-24T03:57:15;98108.38;;;10.66;100.00
9717;BME280;4897;43.570;27.832;2022-11-24T03:59:42;98104.69;;;10.67;100.00
9717;BME280;4897;43.570;27.832;2022-11-24T04:02:09;98066.38;;;10.32;100.00
9717;BME280;4897;43.570;27.832;2022-11-24T04:04:36;98101.69;;;10.62;100.00
9717;BME280;4897;43.570;27.832;2022-11-24T04:07:03;98113.41;;;10.69;100.00
9717;BME280;4897;43.570;27.832;2022-11-24T04:09:30;98091.78;;;10.62;100.00
9717;BME280;4897;43.570;27.832;2022-11-24T04:11:59;98114.50;;;10.84;100.00
9717;BME280;4897;43.570;27.832;2022-11-24T04:14:43;98081.94;;;10.63;100.00
9717;BME280;4897;43.570;27.832;2022-11-24T04:17:10;98121.84;;;10.82;100.00
9717;BME280;4897;43.570;27.832;2022-11-24T04:19:37;98122.03;;;10.80;100.00
9717;BME280;4897;43.570;27.832;2022-11-24T04:22:04;98118.97;;;10.75;100.00
9717;BME280;4897;43.570;27.832;2022-11-24T04:24:31;98125.00;;;10.77;100.00
9717;BME280;4897;43.570;27.832;2022-11-24T04:26:59;98126.06;;;10.84;100.00
9717;BME280;4897;43.570;27.832;2022-11-24T04:29:26;98119.19;;;10.82;100.00
9717;BME280;4897;43.570;27.832;2022-11-24T04:31:53;98121.91;;;10.90;100.00
9717;BME280;4897;43.570;27.832;2022-11-24T04:34:20;98131.25;;;10.86;100.00
9717;BME280;4897;43.570;27.832;2022-11-24T04:36:46;98125.72;;;10.87;100.00
9717;BME280;4897;43.570;27.832;2022-11-24T04:39:13;98131.91;;;10.88;100.00
9717;BME280;4897;43.570;27.832;2022-11-24T04:41:40;98136.69;;;11.02;100.00
9717;BME280;4897;43.570;27.832;2022-11-24T04:44:08;98149.44;;;11.08;100.00
9717;BME280;4897;43.570;27.832;2022-11-24T04:46:35;98120.94;;;10.91;100.00
9717;BME280;4897;43.570;27.832;2022-11-24T04:49:02;98146.25;;;11.04;100.00
9717;BME280;4897;43.570;27.832;2022-11-24T04:51:30;98153.88;;;10.99;100.00
9717;BME280;4897;43.570;27.832;2022-11-24T04:53:57;98089.59;;;10.58;100.00
9717;BME280;4897;43.570;27.832;2022-11-24T04:56:24;98159.09;;;11.01;100.00
9717;BME280;4897;43.570;27.832;2022-11-24T04:58:50;98140.19;;;10.77;100.00
9717;BME280;4897;43.570;27.832;2022-11-24T05:01:19;98123.16;;;10.78;100.00
9717;BME280;4897;43.570;27.832;2022-11-24T05:03:46;98143.06;;;11.01;100.00
9717;BME280;4897;43.570;27.832;2022-11-24T05:06:12;98168.19;;;11.16;100.00
9717;BME280;4897;43.570;27.832;2022-11-24T05:08:39;98149.59;;;11.06;100.00
9717;BME280;4897;43.570;27.832;2022-11-24T05:11:06;98128.63;;;10.94;100.00
9717;BME280;4897;43.570;27.832;2022-11-24T05:13:32;98134.81;;;10.94;100.00
9717;BME280;4897;43.570;27.832;2022-11-24T05:15:59;98168.06;;;11.17;100.00
9717;BME280;4897;43.570;27.832;2022-11-24T05:18:27;98160.97;;;11.08;100.00
9717;BME280;4897;43.570;27.832;2022-11-24T05:20:54;98170.88;;;11.16;100.00
9717;BME280;4897;43.570;27.832;2022-11-24T05:23:24;98124.16;;;10.77;100.00
9717;BME280;4897;43.570;27.832;2022-11-24T05:25:51;98156.00;;;10.88;100.00
9717;BME280;4897;43.570;27.832;2022-11-24T05:28:18;98171.97;;;10.80;100.00
9717;BME280;4897;43.570;27.832;2022-11-24T05:30:45;98174.25;;;10.92;100.00
9717;BME280;4897;43.570;27.832;2022-11-24T05:33:14;98185.69;;;11.02;100.00
9717;BME280;4897;43.570;27.832;2022-11-24T05:35:45;98176.75;;;10.94;100.00
9717;BME280;4897;43.570;27.832;2022-11-24T05:38:12;98186.78;;;10.92;100.00
9717;BME280;4897;43.570;27.832;2022-11-24T05:40:40;98198.16;;;10.94;100.00
9717;BME280;4897;43.570;27.832;2022-11-24T05:43:09;98194.06;;;10.82;100.00
9717;BME280;4897;43.570;27.832;2022-11-24T05:45:36;98191.72;;;10.87;100.00
9717;BME280;4897;43.570;27.832;2022-11-24T05:48:05;98187.22;;;11.05;100.00
9717;BME280;4897;43.570;27.832;2022-11-24T05:50:33;98190.91;;;11.12;100.00
9717;BME280;4897;43.570;27.832;2022-11-24T05:53:08;98190.09;;;11.11;100.00
9717;BME280;4897;43.570;27.832;2022-11-24T05:55:35;98171.41;;;10.94;100.00
9717;BME280;4897;43.570;27.832;2022-11-24T05:58:04;98197.91;;;11.05;100.00
9717;BME280;4897;43.570;27.832;2022-11-24T06:00:32;98171.94;;;10.97;100.00
9717;BME280;4897;43.570;27.832;2022-11-24T06:03:00;98210.53;;;11.20;100.00
9717;BME280;4897;43.570;27.832;2022-11-24T06:05:28;98208.78;;;11.29;100.00
9717;BME280;4897;43.570;27.832;2022-11-24T06:07:55;98216.03;;;11.37;100.00
9717;BME280;4897;43.570;27.832;2022-11-24T06:10:23;98196.69;;;11.25;100.00
9717;BME280;4897;43.570;27.832;2022-11-24T06:12:50;98211.66;;;11.36;100.00
9717;BME280;4897;43.570;27.832;2022-11-24T06:15:17;98203.25;;;11.31;100.00
9717;BME280;4897;43.570;27.832;2022-11-24T06:17:51;98227.75;;;11.44;100.00
9717;BME280;4897;43.570;27.832;2022-11-24T06:20:18;98227.00;;;11.51;100.00
9717;BME280;4897;43.570;27.832;2022-11-24T06:22:45;98227.03;;;11.59;100.00
9717;BME280;4897;43.570;27.832;2022-11-24T06:25:12;98233.75;;;11.63;100.00
9717;BME280;4897;43.570;27.832;2022-11-24T06:27:41;98202.22;;;11.49;100.00
9717;BME280;4897;43.570;27.832;2022-11-24T06:30:09;98226.41;;;11.65;100.00
9717;BME280;4897;43.570;27.832;2022-11-24T06:32:36;98216.31;;;11.59;100.00
9717;BME280;4897;43.570;27.832;2022-11-24T06:35:09;98221.59;;;11.69;100.00
9717;BME280;4897;43.570;27.832;2022-11-24T06:37:36;98248.78;;;11.82;100.00
9717;BME280;4897;43.570;27.832;2022-11-24T06:40:04;98222.44;;;11.69;100.00
9717;BME280;4897;43.570;27.832;2022-11-24T06:42:33;98252.34;;;11.90;100.00
9717;BME280;4897;43.570;27.832;2022-11-24T06:45:01;98063.50;;;10.77;100.00
9717;BME280;4897;43.570;27.832;2022-11-24T06:47:28;98255.69;;;11.92;100.00
9717;BME280;4897;43.570;27.832;2022-11-24T06:49:55;98191.34;;;11.51;100.00
9717;BME280;4897;43.570;27.832;2022-11-24T06:52:22;98256.34;;;11.86;100.00
9717;BME280;4897;43.570;27.832;2022-11-24T06:54:49;98246.75;;;11.58;100.00
9717;BME280;4897;43.570;27.832;2022-11-24T06:57:16;98260.75;;;11.70;100.00
9717;BME280;4897;43.570;27.832;2022-11-24T06:59:43;98197.13;;;11.38;100.00
9717;BME280;4897;43.570;27.832;2022-11-24T07:02:11;98263.31;;;11.79;100.00
9717;BME280;4897;43.570;27.832;2022-11-24T07:04:38;98188.09;;;11.39;100.00
9717;BME280;4897;43.570;27.832;2022-11-24T07:07:05;98236.19;;;11.74;100.00
9717;BME280;4897;43.570;27.832;2022-11-24T07:09:32;98238.91;;;11.82;100.00
9717;BME280;4897;43.570;27.832;2022-11-24T07:11:59;98263.22;;;11.89;100.00
9717;BME280;4897;43.570;27.832;2022-11-24T07:14:26;98256.53;;;11.93;100.00
9717;BME280;4897;43.570;27.832;2022-11-24T07:16:53;98259.06;;;12.02;100.00
9717;BME280;4897;43.570;27.832;2022-11-24T07:19:23;98261.97;;;12.09;100.00
9717;BME280;4897;43.570;27.832;2022-11-24T07:21:50;98257.09;;;12.13;100.00
9717;BME280;4897;43.570;27.832;2022-11-24T07:24:17;98250.38;;;12.09;100.00
9717;BME280;4897;43.570;27.832;2022-11-24T07:26:44;98206.75;;;11.82;100.00
9717;BME280;4897;43.570;27.832;2022-11-24T07:29:11;98259.13;;;12.19;100.00
9717;BME280;4897;43.570;27.832;2022-11-24T07:31:38;98229.09;;;11.99;100.00
9717;BME280;4897;43.570;27.832;2022-11-24T07:34:05;98260.59;;;12.05;100.00
9717;BME280;4897;43.570;27.832;2022-11-24T07:36:33;98186.72;;;11.35;100.00
9717;BME280;4897;43.570;27.832;2022-11-24T07:39:00;98195.97;;;11.66;100.00
9717;BME280;4897;43.570;27.832;2022-11-24T07:41:27;98254.56;;;11.69;100.00
9717;BME280;4897;43.570;27.832;2022-11-24T07:43:54;98216.13;;;11.53;100.00
9717;BME280;4897;43.570;27.832;2022-11-24T07:46:21;98190.31;;;11.52;100.00
9717;BME280;4897;43.570;27.832;2022-11-24T07:48:48;98263.75;;;12.00;100.00
9717;BME280;4897;43.570;27.832;2022-11-24T07:51:15;98246.44;;;11.87;100.00
9717;BME280;4897;43.570;27.832;2022-11-24T07:53:44;98254.00;;;11.91;100.00
9717;BME280;4897;43.570;27.832;2022-11-24T07:56:11;98199.25;;;11.60;100.00
9717;BME280;4897;43.570;27.832;2022-11-24T07:58:38;98243.28;;;11.91;100.00
9717;BME280;4897;43.570;27.832;2022-11-24T08:01:09;98249.88;;;12.05;100.00
9717;BME280;4897;43.570;27.832;2022-11-24T08:03:37;98247.03;;;12.07;100.00
9717;BME280;4897;43.570;27.832;2022-11-24T08:06:04;98258.81;;;12.22;100.00
9717;BME280;4897;43.570;27.832;2022-11-24T08:08:31;98244.56;;;12.13;100.00
9717;BME280;4897;43.570;27.832;2022-11-24T08:11:05;98245.91;;;12.17;100.00
9717;BME280;4897;43.570;27.832;2022-11-24T08:13:32;98253.78;;;12.27;100.00
9717;BME280;4897;43.570;27.832;2022-11-24T08:16:03;98267.41;;;12.41;100.00
9717;BME280;4897;43.570;27.832;2022-11-24T08:18:30;98262.59;;;12.45;100.00
9717;BME280;4897;43.570;27.832;2022-11-24T08:20:57;98268.94;;;12.44;100.00
9717;BME280;4897;43.570;27.832;2022-11-24T08:23:24;98240.25;;;12.28;100.00
9717;BME280;4897;43.570;27.832;2022-11-24T08:25:52;98231.75;;;12.41;100.00
9717;BME280;4897;43.570;27.832;2022-11-24T08:28:22;98253.53;;;12.46;100.00
9717;BME280;4897;43.570;27.832;2022-11-24T08:30:49;98257.38;;;12.43;100.00
9717;BME280;4897;43.570;27.832;2022-11-24T08:33:16;98257.53;;;12.42;100.00
9717;BME280;4897;43.570;27.832;2022-11-24T08:35:43;98246.16;;;12.48;100.00
9717;BME280;4897;43.570;27.832;2022-11-24T08:38:10;98243.66;;;12.46;100.00
9717;BME280;4897;43.570;27.832;2022-11-24T08:40:41;98231.03;;;12.31;100.00
9717;BME280;4897;43.570;27.832;2022-11-24T08:43:08;98244.16;;;12.50;100.00
9717;BME280;4897;43.570;27.832;2022-11-24T08:45:37;98242.97;;;12.52;100.00
9717;BME280;4897;43.570;27.832;2022-11-24T08:48:04;98210.91;;;12.27;100.00
9717;BME280;4897;43.570;27.832;2022-11-24T08:50:31;98228.53;;;12.37;100.00
9717;BME280;4897;43.570;27.832;2022-11-24T08:53:00;98240.59;;;12.41;100.00
9717;BME280;4897;43.570;27.832;2022-11-24T08:55:27;98251.66;;;12.38;100.00
9717;BME280;4897;43.570;27.832;2022-11-24T08:57:54;98249.28;;;12.27;100.00
9717;BME280;4897;43.570;27.832;2022-11-24T09:00:21;98227.63;;;12.13;100.00
9717;BME280;4897;43.570;27.832;2022-11-24T09:02:56;98253.84;;;12.35;100.00
9717;BME280;4897;43.570;27.832;2022-11-24T09:05:24;98251.97;;;12.35;100.00
9717;BME280;4897;43.570;27.832;2022-11-24T09:07:51;98232.75;;;12.48;100.00
9717;BME280;4897;43.570;27.832;2022-11-24T09:10:18;98237.75;;;12.35;100.00
9717;BME280;4897;43.570;27.832;2022-11-24T09:12:45;98247.84;;;12.49;100.00
9717;BME280;4897;43.570;27.832;2022-11-24T09:15:13;98172.66;;;12.00;100.00
9717;BME280;4897;43.570;27.832;2022-11-24T09:17:41;98198.53;;;12.26;100.00
9717;BME280;4897;43.570;27.832;2022-11-24T09:20:10;98193.72;;;12.45;100.00
9717;BME280;4897;43.570;27.832;2022-11-24T09:22:38;98250.25;;;12.84;100.00
9717;BME280;4897;43.570;27.832;2022-11-24T09:25:06;98249.56;;;12.98;100.00
9717;BME280;4897;43.570;27.832;2022-11-24T09:27:33;98247.78;;;13.07;100.00
9717;BME280;4897;43.570;27.832;2022-11-24T09:30:01;98233.84;;;12.95;100.00
9717;BME280;4897;43.570;27.832;2022-11-24T09:32:28;98229.78;;;12.75;100.00
9717;BME280;4897;43.570;27.832;2022-11-24T09:34:56;98246.56;;;12.93;100.00
9717;BME280;4897;43.570;27.832;2022-11-24T09:37:24;98223.25;;;12.94;100.00
9717;BME280;4897;43.570;27.832;2022-11-24T09:39:51;98187.69;;;12.67;100.00
9717;BME280;4897;43.570;27.832;2022-11-24T09:42:28;98241.41;;;13.16;100.00
9717;BME280;4897;43.570;27.832;2022-11-24T09:47:55;98211.69;;;12.93;100.00
9717;BME280;4897;43.570;27.832;2022-11-24T09:50:26;98245.22;;;12.97;100.00
9717;BME280;4897;43.570;27.832;2022-11-24T09:52:59;98247.56;;;12.92;100.00
9717;BME280;4897;43.570;27.832;2022-11-24T09:55:35;98242.19;;;12.92;100.00
9717;BME280;4897;43.570;27.832;2022-11-24T09:58:16;98237.50;;;12.78;100.00
9717;BME280;4897;43.570;27.832;2022-11-24T10:00:44;98254.44;;;12.95;100.00
9717;BME280;4897;43.570;27.832;2022-11-24T10:03:17;98224.59;;;12.73;100.00
9717;BME280;4897;43.570;27.832;2022-11-24T10:05:48;98242.56;;;12.89;100.00
9717;BME280;4897;43.570;27.832;2022-11-24T10:08:27;98245.56;;;12.86;100.00
9717;BME280;4897;43.570;27.832;2022-11-24T10:11:00;98247.56;;;12.84;100.00
9717;BME280;4897;43.570;27.832;2022-11-24T10:13:43;98238.25;;;12.30;100.00
9717;BME280;4897;43.570;27.832;2022-11-24T10:16:18;98240.78;;;12.40;100.00
9717;BME280;4897;43.570;27.832;2022-11-24T10:18:57;98257.88;;;12.39;100.00
9717;BME280;4897;43.570;27.832;2022-11-24T10:21:40;98129.19;;;11.39;100.00
9717;BME280;4897;43.570;27.832;2022-11-24T10:27:12;98260.03;;;11.93;100.00
9717;BME280;4897;43.570;27.832;2022-11-24T10:29:41;98265.31;;;12.11;100.00
9717;BME280;4897;43.570;27.832;2022-11-24T10:32:14;98206.97;;;11.63;100.00
9717;BME280;4897;43.570;27.832;2022-11-24T10:34:45;98274.91;;;11.88;100.00
9717;BME280;4897;43.570;27.832;2022-11-24T10:37:19;98273.91;;;11.63;100.00
9717;BME280;4897;43.570;27.832;2022-11-24T10:39:57;98284.88;;;11.52;100.00
9717;BME280;4897;43.570;27.832;2022-11-24T10:42:28;98282.16;;;11.44;100.00
9717;BME280;4897;43.570;27.832;2022-11-24T10:44:59;98283.63;;;11.39;100.00
9717;BME280;4897;43.570;27.832;2022-11-24T10:47:29;98311.41;;;11.20;100.00
9717;BME280;4897;43.570;27.832;2022-11-24T10:49:59;98234.28;;;10.98;100.00
9717;BME280;4897;43.570;27.832;2022-11-24T10:52:28;98267.00;;;11.09;100.00
9717;BME280;4897;43.570;27.832;2022-11-24T10:54:59;98286.72;;;11.08;100.00
9717;BME280;4897;43.570;27.832;2022-11-24T10:57:29;98258.00;;;10.93;100.00
9717;BME280;4897;43.570;27.832;2022-11-24T10:59:56;98290.00;;;11.20;100.00
9717;BME280;4897;43.570;27.832;2022-11-24T11:02:35;98281.47;;;11.24;100.00
9717;BME280;4897;43.570;27.832;2022-11-24T11:05:25;98292.41;;;11.31;100.00
9717;BME280;4897;43.570;27.832;2022-11-24T11:08:10;98293.03;;;11.43;100.00
9717;BME280;4897;43.570;27.832;2022-11-24T11:10:43;98275.47;;;11.48;100.00
9717;BME280;4897;43.570;27.832;2022-11-24T11:13:26;98269.22;;;11.40;100.00
9717;BME280;4897;43.570;27.832;2022-11-24T11:15:54;98271.00;;;11.31;100.00
9717;BME280;4897;43.570;27.832;2022-11-24T11:18:25;98282.66;;;11.22;100.00
9717;BME280;4897;43.570;27.832;2022-11-24T11:20:57;98204.22;;;10.78;100.00
9717;BME280;4897;43.570;27.832;2022-11-24T11:23:28;98286.47;;;11.19;100.00
9717;BME280;4897;43.570;27.832;2022-11-24T11:26:27;98291.50;;;11.22;100.00
9717;BME280;4897;43.570;27.832;2022-11-24T11:28:58;98288.59;;;11.16;100.00
9717;BME280;4897;43.570;27.832;2022-11-24T11:31:26;98274.19;;;11.09;100.00
9717;BME280;4897;43.570;27.832;2022-11-24T11:33:55;98280.50;;;11.08;100.00
9717;BME280;4897;43.570;27.832;2022-11-24T11:36:23;98290.19;;;11.26;100.00
9717;BME280;4897;43.570;27.832;2022-11-24T11:38:51;98265.25;;;11.18;100.00
9717;BME280;4897;43.570;27.832;2022-11-24T11:41:24;98295.72;;;11.25;100.00
9717;BME280;4897;43.570;27.832;2022-11-24T11:44:11;98233.38;;;10.89;100.00
9717;BME280;4897;43.570;27.832;2022-11-24T11:46:41;98278.91;;;11.33;100.00
9717;BME280;4897;43.570;27.832;2022-11-24T11:49:10;98250.84;;;11.19;100.00
9717;BME280;4897;43.570;27.832;2022-11-24T11:51:48;98282.44;;;11.41;100.00
9717;BME280;4897;43.570;27.832;2022-11-24T11:54:28;98290.56;;;11.49;100.00
9717;BME280;4897;43.570;27.832;2022-11-24T11:57:06;98273.63;;;11.23;100.00
9717;BME280;4897;43.570;27.832;2022-11-24T11:59:50;98283.56;;;11.13;100.00
9717;BME280;4897;43.570;27.832;2022-11-24T12:02:48;98294.56;;;11.10;100.00
9717;BME280;4897;43.570;27.832;2022-11-24T12:05:29;98305.22;;;11.02;100.00
9717;BME280;4897;43.570;27.832;2022-11-24T12:08:04;98292.69;;;11.02;100.00
9717;BME280;4897;43.570;27.832;2022-11-24T12:10:41;98312.19;;;10.95;100.00
9717;BME280;4897;43.570;27.832;2022-11-24T12:13:39;98270.22;;;10.78;100.00
9717;BME280;4897;43.570;27.832;2022-11-24T12:16:15;98266.03;;;10.75;100.00
9717;BME280;4897;43.570;27.832;2022-11-24T12:18:51;98289.84;;;10.69;100.00
9717;BME280;4897;43.570;27.832;2022-11-24T12:21:28;98304.94;;;10.42;100.00
9717;BME280;4897;43.570;27.832;2022-11-24T12:24:07;98305.06;;;10.41;100.00
9717;BME280;4897;43.570;27.832;2022-11-24T12:26:40;98305.94;;;10.41;100.00
9717;BME280;4897;43.570;27.832;2022-11-24T12:29:28;98313.34;;;10.48;100.00
9717;BME280;4897;43.570;27.832;2022-11-24T12:32:06;98312.88;;;10.34;100.00
9717;BME280;4897;43.570;27.832;2022-11-24T12:34:47;98305.94;;;10.41;100.00
9717;BME280;4897;43.570;27.832;2022-11-24T12:37:40;98315.06;;;10.39;100.00
9717;BME280;4897;43.570;27.832;2022-11-24T12:40:14;98293.16;;;10.35;100.00
9717;BME280;4897;43.570;27.832;2022-11-24T12:42:51;98321.75;;;10.53;100.00
9717;BME280;4897;43.570;27.832;2022-11-24T12:45:32;98325.97;;;10.55;100.00
9717;BME280;4897;43.570;27.832;2022-11-24T12:48:17;98327.72;;;10.47;100.00
9717;BME280;4897;43.570;27.832;2022-11-24T12:50:48;98332.47;;;10.53;100.00
9717;BME280;4897;43.570;27.832;2022-11-24T12:53:17;98294.16;;;10.07;100.00
9717;BME280;4897;43.570;27.832;2022-11-24T12:55:47;98336.25;;;10.23;100.00
9717;BME280;4897;43.570;27.832;2022-11-24T12:58:20;98351.53;;;10.03;100.00
9717;BME280;4897;43.570;27.832;2022-11-24T13:01:03;98353.28;;;9.76;100.00
9717;BME280;4897;43.570;27.832;2022-11-24T13:03:40;98370.44;;;9.54;100.00
9717;BME280;4897;43.570;27.832;2022-11-24T13:06:14;98353.34;;;9.37;100.00
9717;BME280;4897;43.570;27.832;2022-11-24T13:08:42;98355.34;;;9.26;100.00
9717;BME280;4897;43.570;27.832;2022-11-24T13:11:25;98360.94;;;9.23;100.00
9717;BME280;4897;43.570;27.832;2022-11-24T13:14:05;98365.88;;;9.18;100.00
9717;BME280;4897;43.570;27.832;2022-11-24T13:16:34;98353.63;;;9.06;100.00
9717;BME280;4897;43.570;27.832;2022-11-24T13:19:15;98370.03;;;9.01;100.00
9717;BME280;4897;43.570;27.832;2022-11-24T13:21:59;98372.44;;;9.04;100.00
9717;BME280;4897;43.570;27.832;2022-11-24T13:24:28;98375.41;;;9.11;100.00